Terminal Aerodrome Forecast
Issued by NWS Cleveland, OH

Home | Current Version | Previous Version | Text Only | Print | Product List | Glossary On
Versions: 1 2 3 4 5 6 7 8 9 10 11 12 13 14 15
000
FTUS41 KCLE 201700
TAFMFD
TAF
KMFD 201738Z 2018/2118 22012G20KT P6SM BKN045 BKN250
     FM210300 22015KT P6SM VCTS BKN045CB
      TEMPO 2104/2107 3SM TSRA BR OVC035CB
     FM210700 22012KT P6SM OVC040
     FM211000 23012KT P6SM VCSH SCT015 OVC030
      TEMPO 2110/2114 5SM -SHRA BR SCT009 OVC015
     FM211400 25014KT P6SM BKN040=

USA.gov is the U.S. government's official web portal to all federal, state and local government web resources and services.